EST,Max TemperatureF,Mean TemperatureF,Min TemperatureF,Max Dew PointF,MeanDew PointF,Min DewpointF,Max Humidity, Mean Humidity, Min Humidity, Max Sea Level PressureIn, Mean Sea Level PressureIn, Min Sea Level PressureIn, Max VisibilityMiles, Mean VisibilityMiles, Min VisibilityMiles, Max Wind SpeedMPH, Mean Wind SpeedMPH, Max Gust SpeedMPH,PrecipitationIn, CloudCover, Events, WindDirDegrees
2014-1-1,60,52,43,56,41,32,93,72,50,30.44,30.31,30.15,10,10,10,12,5,15,0.05,3,Rain,38
2014-1-2,64,57,50,63,54,49,100,94,87,30.14,29.83,29.46,10,6,2,22,5,33,1.08,8,Rain,303
2014-1-3,52,42,31,51,31,14,100,73,45,30.47,29.96,29.52,10,10,5,23,13,39,0.03,5,Rain-Snow,332
2014-1-4,54,43,32,49,34,22,93,77,61,30.52,30.43,30.31,10,10,10,13,7,21,0.00,1,,43
2014-1-5,63,59,54,61,55,49,100,89,77,30.29,30.11,29.86,10,7,4,18,11,24,0.06,5,Rain,148
2014-1-6,68,53,37,63,51,20,100,75,49,30.03,29.78,29.63,10,7,2,29,15,42,0.03,3,Rain,261
2014-1-7,37,28,19,18,7,5,59,49,38,30.54,30.36,30.06,10,10,10,24,12,36,0.00,0,,311
2014-1-8,38,32,25,24,12,5,81,57,32,30.64,30.57,30.51,10,10,10,12,5,17,0.00,0,,354
2014-1-9,57,44,31,47,34,22,76,64,52,30.59,30.54,30.50,10,10,10,14,8,19,0.00,1,,48
2014-1-10,66,62,57,62,54,47,93,78,63,30.48,30.34,30.17,10,9,5,22,11,32,0.01,2,Rain,144
2014-1-11,70,64,58,66,63,56,100,94,87,30.15,29.88,29.65,6,3,0,32,16,48,2.00,8,Fog-Rain,210
2014-1-12,61,49,37,57,44,36,93,72,50,30.21,29.95,29.67,10,9,4,20,9,28,T,1,Rain,287
2014-1-13,62,50,37,54,44,34,92,64,36,30.21,30.12,30.03,10,9,4,10,3,14,T,4,Rain,242
2014-1-14,67,59,50,62,57,45,100,89,78,30.03,29.88,29.75,10,5,0,25,8,36,0.83,6,Fog-Rain,252
2014-1-15,56,50,44,49,46,43,100,86,72,29.99,29.94,29.86,10,10,10,9,3,13,0.00,2,,341
2014-1-16,50,44,38,47,40,32,100,90,79,30.07,29.93,29.83,10,9,2,14,7,24,0.00,6,,349
2014-1-17,60,49,38,48,37,27,82,61,39,30.11,30.02,29.88,10,10,10,21,11,28,0.00,0,,251
2014-1-18,57,46,35,47,29,14,86,65,44,30.08,29.94,29.79,10,10,9,24,12,38,0.01,3,Rain,286
2014-1-19,53,44,35,38,29,17,76,58,40,30.07,29.99,29.90,10,10,10,21,11,31,0.00,2,,264
2014-1-20,58,52,46,46,39,30,83,67,50,29.94,29.88,29.81,10,10,8,25,13,34,0.00,0,,250
2014-1-21,62,48,33,47,43,32,93,72,51,29.85,29.62,29.46,10,9,3,23,12,43,0.10,3,Rain,280
2014-1-22,33,28,23,29,18,8,96,69,42,30.14,29.86,29.60,10,8,2,25,13,44,T,4,Snow,325
2014-1-23,37,28,18,18,14,10,84,60,35,30.35,30.25,30.14,10,10,10,10,4,17,0.00,1,,359
2014-1-24,33,23,13,21,8,4,75,59,42,30.54,30.43,30.34,10,10,10,15,7,29,0.00,3,,5
2014-1-25,51,33,14,38,27,12,78,62,45,30.30,29.95,29.66,10,10,9,36,16,51,T,2,,263
2014-1-26,53,45,37,42,30,22,71,57,43,30.04,29.95,29.83,10,10,9,21,11,29,0.00,0,,257
2014-1-27,59,50,40,50,41,33,89,71,52,30.02,29.91,29.83,10,10,9,18,12,33,0.00,0,,256
2014-1-28,41,36,31,36,30,26,100,82,64,30.27,30.16,30.03,10,7,2,21,15,40,0.59,8,Rain,20
2014-1-29,33,29,24,32,25,16,100,84,68,30.38,30.16,30.00,10,6,1,21,9,33,0.53,6,Rain-Snow,354
2014-1-30,39,32,25,37,32,17,92,83,74,30.37,30.28,30.19,10,10,3,13,8,20,0.02,6,Rain,7
2014-1-31,47,41,35,42,38,35,100,88,76,30.23,30.20,30.15,10,6,0,10,4,17,T,7,Fog-Rain,351